createdAt,value
2022-09-22T00:14:10.681Z,100729.33
2022-09-22T00:30:59.040Z,100722.56
2022-09-22T00:47:50.617Z,100723.36
2022-09-22T01:04:40.163Z,100718.26
2022-09-22T01:21:40.204Z,100716.53
2022-09-22T01:38:33.626Z,100723.08
2022-09-22T01:55:27.453Z,100725.83
2022-09-22T02:12:16.205Z,100728.19
2022-09-22T02:29:09.285Z,100720.58
2022-09-22T02:46:03.898Z,100718.41
2022-09-22T03:02:52.486Z,100725.89
2022-09-22T03:19:40.634Z,100727.91
2022-09-22T03:36:29.073Z,100723.21
2022-09-22T03:53:17.414Z,100724.13
2022-09-22T04:10:06.432Z,100733.23
2022-09-22T04:27:18.664Z,100738.66
2022-09-22T04:44:03.218Z,100737.58
2022-09-22T05:00:51.420Z,100746.70
2022-09-22T05:17:39.942Z,100747.84
2022-09-22T05:34:28.183Z,100756.05
2022-09-22T05:51:16.400Z,100769.14
2022-09-22T06:08:06.964Z,100771.98
2022-09-22T06:24:55.234Z,100777.67
2022-09-22T06:41:44.969Z,100778.83
2022-09-22T06:58:47.003Z,100778.16
2022-09-22T07:15:41.932Z,100783.23
2022-09-22T07:32:35.410Z,100787.61
2022-09-22T07:49:23.626Z,100792.61
2022-09-22T08:06:13.861Z,100787.10
2022-09-22T08:23:03.535Z,100786.40
2022-09-22T08:39:52.082Z,100793.92
2022-09-22T08:56:46.182Z,100791.98
2022-09-22T09:13:51.604Z,100791.23
2022-09-22T12:18:48.053Z,100738.66
2022-09-22T12:35:36.418Z,100733.07
2022-09-22T12:53:03.982Z,100729.13
2022-09-22T13:10:12.489Z,100729.20
2022-09-22T13:27:08.733Z,100720.39
2022-09-22T13:44:00.543Z,100712.33
2022-09-22T14:01:14.182Z,100715.25
2022-09-22T14:18:02.925Z,100708.54
2022-09-22T14:34:53.722Z,100704.70
2022-09-22T14:51:46.183Z,100702.98
2022-09-22T15:08:34.571Z,100692.94
2022-09-22T15:25:23.468Z,100690.42
2022-09-22T15:42:12.940Z,100689.27
2022-09-22T15:59:02.719Z,100695.66
2022-09-22T16:15:50.725Z,100703.77
2022-09-22T16:32:39.857Z,100719.11
2022-09-22T16:49:27.900Z,100716.21
2022-09-22T17:06:18.570Z,100719.60
2022-09-22T17:23:07.173Z,100719.43
2022-09-22T17:39:55.229Z,100728.77
2022-09-22T17:56:43.123Z,100729.94
2022-09-22T18:13:32.347Z,100741.95
2022-09-22T18:30:22.667Z,100749.05
2022-09-22T18:47:13.396Z,100754.02
2022-09-22T19:04:01.597Z,100763.42
2022-09-22T19:20:49.767Z,100757.67
2022-09-22T19:37:38.647Z,100759.20
2022-09-22T19:54:27.338Z,100766.42
2022-09-22T20:11:25.936Z,100765.94
2022-09-22T20:28:15.196Z,100765.32
2022-09-22T20:45:02.941Z,100759.80
2022-09-22T21:01:51.760Z,100760.33
2022-09-22T21:18:40.431Z,100751.89
2022-09-22T21:35:28.309Z,100751.10
2022-09-22T21:52:16.568Z,100746.48
2022-09-22T22:09:07.209Z,100750.05
2022-09-22T22:26:01.250Z,100735.52
2022-09-22T22:42:49.622Z,100727.52
2022-09-22T22:59:37.673Z,100717.67
2022-09-22T23:16:27.505Z,100716.35
2022-09-22T23:33:15.579Z,100714.06
2022-09-22T23:50:03.546Z,100711.64
